LEAMEBCI

Guest
Details From LEAM - Almeria
To EBCI - Brussels South - Charleroi
Flight Number -
Tags Generated
Created
Modified
Stats Distance 869 nm / 1,609 km
Max Altitude 0 ft / 0 m
Waypoints 5
Social Downloads 2
Likes 0
Share VATSIM

Download

Looking for another format? Having issues loading an existing format? Contact us
Advertisement - Login to hide

Notes

Generated

Route

LEAM MABOL ETAMO BFS25 EBCI

ID Type Via Altitude Latitude Longitude Leg Dist Tot Dist Heading (true) Name
O LEAM APT - 0 ft / 0 m 36.83972˚ -2.38726˚ - 0 nm - -
MABOL FIX - 0 ft / 0 m 43.45806˚ 0.55833˚ 419 nm 419 nm 18° / 20° -
ETAMO FIX - 0 ft / 0 m 46.84028˚ 2.33750˚ 216 nm 636 nm 20° / 21° -
BFS25 FIX - 0 ft / 0 m 50.13799˚ 4.21458˚ 211 nm 848 nm 20° / 21° -
O EBCI APT - 0 ft / 0 m 50.45539˚ 4.43664˚ 20 nm 868 nm 24° / 24° -

Altitude Profile

Advertisement - Login to hide

Weather


0- 5 10 15 20 25 30 35+ Temperature / ° C

Clouds and Precipitation
Forecast for 2017-12-17 06:00 UTC. Updated an hour ago

Ground ~20,000 ft ~40,000 ft Winds

LEAM

Details ICAO LEAM (LEI)
Name Almeria
Region Spain
Timezone Unknown (UTC+0.0)
Stats Elevation 70 ft / 21 m (AMSL)
Location 36.843935° -2.370097°
Runways 1
Magnetic Variation 0.287° W

METAR

LEAM 170200Z AUTO 02008KT 350V070 9999 NCD 10/01 Q1024

Decode

TAF

TAF LEAM 162000Z 1621/1721 02006KT 9999 FEW070 TX16/1714Z TN07/1706Z TEMPO 1706/1710 32010KT

Decode

Departure Runways

ID Width Length Bearing (true) Bearing (mag) Surface Threshold Offset Overrun Length
08 148 ft / 45 m 10,484 ft / 3,196 m 72.94° 73.23° Asphalt 492 ft / 150 m 191 ft / 58 m
26 148 ft / 45 m 10,484 ft / 3,196 m 252.96° 253.25° Asphalt 0 ft / 0 m 150 ft / 46 m

EBCI

Details ICAO EBCI (CRL)
Name Brussels South - Charleroi
Region Belgium
Timezone Europe/Brussels (UTC+1.0)
Stats Elevation 614 ft / 187 m (AMSL)
Location 50.459947° 4.453125°
Runways 1
Magnetic Variation 1.134° E

METAR

EBCI 170150Z 24007KT 9000 SCT026 M00/M01 Q1021 NOSIG

Decode

TAF

TAF EBCI 162304Z 1700/1806 25006KT 9999 FEW012TCU SCT030 TEMPO 1700/1709 1200 BCFG BKN002 PROB30 TEMPO 1701/1706 2500 SHSNRA BECMG 1718/1720 FEW004 BKN008 TEMPO 1721/1806 3000 RADZ BKN004

Decode

Destination Runways

ID Width Length Bearing (true) Bearing (mag) Surface Threshold Offset Overrun Length
07 148 ft / 45 m 8,374 ft / 2,552 m 65.53° 64.40° Asphalt 1,476 ft / 450 m 0 ft / 0 m
25 148 ft / 45 m 8,374 ft / 2,552 m 245.55° 244.42° Asphalt 0 ft / 0 m 0 ft / 0 m

Approach Navaids

Runway Type Ident Frequency Range Bearing (true) Bearing (mag) Slope Elevation
25 Localiser IGC 110.90 MHz 18 nm / 33 km 245.54° 244.41° - 614 ft / 187 m (AMSL)
25 Glidescope IGC 110.90 MHz 10 nm / 19 km 245.54° 244.41° 3.00° 614 ft / 187 m (AMSL)